Time;durP1;ratioP1;P1;durP2;ratioP2;P2;SDS_P1;SDS_P2;PMS_P1;PMS_P2;Temp;Humidity;BMP_temperature;BMP_pressure;BME280_temperature;BME280_humidity;BME280_pressure;Samples;Min_cycle;Max_cycle;Signal;HPM_P1;HPM_P2
2022/09/04 00:02:16;;;;;;;9.43;6.97;;;;;;;19.64;70.52;101205.25;5073137;28;20047;-58
2022/09/04 00:04:53;;;;;;;9.13;6.70;;;;;;;19.59;70.46;101201.94;5073162;28;20028;-60
2022/09/04 00:07:55;;;;;;;8.30;7.07;;;;;;;19.57;69.76;101206.47;5073384;28;20028;-60
2022/09/04 00:10:39;;;;;;;9.23;7.00;;;;;;;19.47;70.97;101209.50;5072740;28;20029;-60
2022/09/04 00:13:13;;;;;;;8.88;7.00;;;;;;;19.44;70.91;101216.72;5073146;28;20032;-60
2022/09/04 00:15:45;;;;;;;8.90;7.00;;;;;;;19.28;71.63;101207.72;5072883;28;20379;-60
2022/09/04 00:18:22;;;;;;;8.75;7.28;;;;;;;19.30;71.64;101225.31;5073138;28;20032;-58
2022/09/04 00:20:58;;;;;;;9.05;7.30;;;;;;;19.25;71.57;101219.31;5072941;28;20040;-58
2022/09/04 00:23:31;;;;;;;8.82;7.50;;;;;;;19.20;72.55;101215.16;5072626;28;20041;-60
2022/09/04 00:26:37;;;;;;;9.20;7.00;;;;;;;19.24;71.31;101222.91;5072811;28;20028;-60
2022/09/04 00:29:17;;;;;;;9.27;7.15;;;;;;;19.16;72.37;101221.53;5072587;28;20051;-59
2022/09/04 00:31:52;;;;;;;11.00;7.45;;;;;;;19.12;72.79;101228.75;5072760;28;20040;-62
2022/09/04 00:34:41;;;;;;;10.68;7.25;;;;;;;19.06;72.84;101221.03;5072198;28;20420;-60
2022/09/04 00:37:12;;;;;;;8.73;7.50;;;;;;;19.03;73.06;101222.06;5072682;28;20028;-59
2022/09/04 00:39:57;;;;;;;8.38;7.30;;;;;;;19.04;72.31;101228.22;5072614;28;20044;-60
2022/09/04 00:42:25;;;;;;;9.20;6.90;;;;;;;19.03;73.64;101229.16;5072514;28;20113;-58
2022/09/04 00:45:03;;;;;;;11.13;6.68;;;;;;;18.97;73.66;101214.34;5072698;28;20040;-59
2022/09/04 00:47:37;;;;;;;8.80;6.97;;;;;;;18.96;73.50;101227.66;5072545;28;20522;-58
2022/09/04 00:50:15;;;;;;;8.02;7.18;;;;;;;18.86;74.63;101224.56;5072452;28;20059;-60
2022/09/04 00:52:59;;;;;;;10.38;7.13;;;;;;;18.91;74.33;101234.94;5072225;28;20097;-59
2022/09/04 00:55:39;;;;;;;8.68;6.95;;;;;;;18.89;74.67;101237.66;5072349;28;20036;-59
2022/09/04 00:58:38;;;;;;;7.95;7.13;;;;;;;18.88;73.83;101240.38;5072431;28;20066;-60
2022/09/04 01:01:03;;;;;;;8.18;6.75;;;;;;;18.85;74.87;101235.22;5071818;28;20045;-60
2022/09/04 01:03:51;;;;;;;7.85;6.53;;;;;;;18.85;73.63;101236.09;5072150;28;20032;-59
2022/09/04 01:06:33;;;;;;;7.57;6.78;;;;;;;18.83;74.40;101239.72;5072191;28;20433;-59
2022/09/04 01:09:26;;;;;;;9.90;7.20;;;;;;;18.81;74.66;101244.22;5071770;28;20444;-61
2022/09/04 01:12:00;;;;;;;7.45;6.75;;;;;;;18.75;75.62;101248.84;5072036;28;20044;-60
2022/09/04 01:14:49;;;;;;;8.25;6.60;;;;;;;18.74;74.42;101255.06;5072073;28;20043;-57
2022/09/04 01:17:28;;;;;;;9.25;6.93;;;;;;;18.67;75.56;101258.91;5072032;28;20039;-59
2022/09/04 01:20:19;;;;;;;8.10;6.90;;;;;;;18.70;74.86;101260.59;5072000;28;20040;-58
2022/09/04 01:22:59;;;;;;;7.68;6.57;;;;;;;18.45;76.30;101239.44;5068969;28;20453;-60
2022/09/04 01:25:49;;;;;;;9.00;7.10;;;;;;;18.51;76.04;101263.06;5071266;28;20066;-60
2022/09/04 01:28:44;;;;;;;7.30;6.43;;;;;;;18.52;76.03;101264.78;5070584;28;20067;-60
2022/09/04 01:31:23;;;;;;;10.18;6.38;;;;;;;18.48;77.08;101267.63;5071891;28;20024;-59
2022/09/04 01:34:18;;;;;;;9.77;5.85;;;;;;;18.43;77.47;101262.50;5071533;28;20036;-60
2022/09/04 01:36:52;;;;;;;10.38;6.07;;;;;;;18.48;77.08;101268.47;5071700;28;20133;-59
2022/09/04 01:39:22;;;;;;;6.65;5.95;;;;;;;18.43;78.26;101276.59;5071504;28;20029;-60
2022/09/04 01:41:59;;;;;;;8.35;6.38;;;;;;;18.50;77.70;101268.44;5071332;28;20040;-60
2022/09/04 01:44:26;;;;;;;10.63;6.78;;;;;;;18.40;78.23;101268.78;5071171;28;20070;-58
2022/09/04 01:47:08;;;;;;;9.00;6.15;;;;;;;18.33;77.79;101269.94;5071529;28;20360;-59
2022/09/04 01:49:36;;;;;;;;;;;;;;;18.40;75.69;101282.03;5072006;28;20127;-59
2022/09/04 01:52:07;;;;;;;8.82;6.00;;;;;;;18.30;78.25;101277.16;5071673;28;20357;-57
2022/09/04 01:54:36;;;;;;;8.33;6.67;;;;;;;18.26;79.32;101276.41;5071543;28;20121;-59
2022/09/04 01:57:06;;;;;;;6.65;5.90;;;;;;;18.31;79.54;101282.38;5071175;28;20282;-60
2022/09/04 01:59:38;;;;;;;8.43;6.50;;;;;;;18.33;79.42;101279.69;5071360;28;20036;-59
2022/09/04 02:02:15;;;;;;;7.13;6.43;;;;;;;18.36;79.39;101290.13;5071405;28;20032;-62
2022/09/04 02:05:17;;;;;;;6.68;6.07;;;;;;;18.38;78.13;101294.47;5071476;28;20109;-59
2022/09/04 02:07:52;;;;;;;10.25;6.20;;;;;;;18.32;79.50;101292.06;5071195;28;20406;-59
2022/09/04 02:10:49;;;;;;;6.43;5.82;;;;;;;18.31;78.90;101293.00;5071409;28;20086;-63
2022/09/04 02:13:34;;;;;;;8.43;6.55;;;;;;;18.34;79.13;101302.63;5071280;28;20062;-59
2022/09/04 02:16:13;;;;;;;8.20;6.55;;;;;;;18.38;79.94;101304.19;5071392;28;20663;-59
2022/09/04 02:19:15;;;;;;;7.95;6.32;;;;;;;18.26;79.87;101300.25;5071250;28;20034;-58
2022/09/04 02:21:54;;;;;;;7.10;5.70;;;;;;;18.28;80.60;101309.00;5071133;28;20029;-59
2022/09/04 02:24:35;;;;;;;7.13;6.22;;;;;;;18.13;81.02;101292.81;5071406;28;20143;-60
2022/09/04 02:27:09;;;;;;;7.40;6.70;;;;;;;18.20;80.58;101311.06;5071699;28;20066;-60
2022/09/04 02:30:04;;;;;;;6.97;6.28;;;;;;;18.17;80.66;101311.19;5071168;28;20086;-60
2022/09/04 02:32:45;;;;;;;9.50;6.85;;;;;;;18.15;81.28;101312.16;5070726;28;20041;-59
2022/09/04 02:35:41;;;;;;;7.65;6.60;;;;;;;18.09;80.85;101307.94;5069911;28;20392;-61
2022/09/04 02:38:30;;;;;;;7.82;6.22;;;;;;;18.01;81.44;101317.94;5071121;28;20507;-59
2022/09/04 02:41:11;;;;;;;7.40;6.30;;;;;;;17.92;82.06;101307.72;5072999;28;20053;-60
2022/09/04 02:43:58;;;;;;;7.90;7.13;;;;;;;17.91;84.01;101319.22;5074736;28;20112;-59
2022/09/04 02:46:46;;;;;;;9.60;7.68;;;;;;;17.95;83.20;101320.84;5074672;28;20044;-59
2022/09/04 02:49:17;;;;;;;8.80;7.13;;;;;;;17.82;84.74;101319.56;5070673;28;20044;-58
2022/09/04 02:52:00;;;;;;;10.25;7.32;;;;;;;17.86;85.23;101323.81;5074853;28;20032;-60
2022/09/04 02:54:43;;;;;;;8.15;7.35;;;;;;;17.90;84.75;101326.28;5074638;28;20036;-59
2022/09/04 02:57:42;;;;;;;8.75;7.55;;;;;;;17.86;85.50;101326.44;5073151;28;20355;-60
2022/09/04 03:00:17;;;;;;;9.25;7.65;;;;;;;17.83;86.63;101335.41;5074799;28;20047;-60
2022/09/04 03:03:06;;;;;;;9.25;7.35;;;;;;;17.82;86.93;101332.81;5074475;28;20082;-60
2022/09/04 03:06:00;;;;;;;10.13;7.60;;;;;;;17.85;85.94;101338.81;5074342;28;20028;-61
2022/09/04 03:08:48;;;;;;;8.48;7.57;;;;;;;17.81;86.46;101341.66;5074336;28;20032;-60
2022/09/04 03:11:24;;;;;;;10.57;7.40;;;;;;;17.78;87.29;101339.13;5074387;28;20048;-60
2022/09/04 03:14:19;;;;;;;7.88;7.07;;;;;;;17.84;86.53;101339.75;5074303;28;20028;-60
2022/09/04 03:17:04;;;;;;;8.00;7.10;;;;;;;17.80;87.53;101340.78;5074186;28;20028;-58
2022/09/04 03:19:59;;;;;;;8.20;7.40;;;;;;;17.80;86.55;101342.59;5074097;28;20061;-60
2022/09/04 03:22:35;;;;;;;9.13;7.20;;;;;;;17.84;87.66;101341.53;5072766;28;20044;-60
2022/09/04 03:25:38;;;;;;;9.25;7.60;;;;;;;17.83;87.41;101342.47;5074085;28;20428;-60
2022/09/04 03:28:11;;;;;;;8.48;7.47;;;;;;;17.83;88.09;101348.63;5074081;28;20051;-59
2022/09/04 03:30:38;;;;;;;8.07;7.22;;;;;;;17.80;88.61;101343.44;5073850;28;20037;-60
2022/09/04 03:33:14;;;;;;;9.45;7.18;;;;;;;17.81;88.70;101347.81;5073897;28;20037;-61
2022/09/04 03:35:52;;;;;;;8.20;7.20;;;;;;;17.78;89.21;101349.72;5073852;28;20040;-60
2022/09/04 03:38:19;;;;;;;8.63;7.60;;;;;;;17.65;90.09;101354.56;5073887;28;20119;-59
2022/09/04 03:41:04;;;;;;;10.35;7.93;;;;;;;17.67;89.48;101356.22;5073598;28;20108;-58
2022/09/04 03:43:32;;;;;;;8.35;7.13;;;;;;;17.70;89.51;101347.31;5073675;28;20040;-58
2022/09/04 03:46:04;;;;;;;9.70;7.00;;;;;;;17.67;89.49;101345.63;5073646;28;20469;-58
2022/09/04 03:48:48;;;;;;;8.70;7.03;;;;;;;17.63;89.81;101354.59;5073719;28;20383;-58
2022/09/04 03:51:24;;;;;;;7.88;6.75;;;;;;;17.59;90.26;101355.59;5073311;28;20529;-58
2022/09/04 03:54:06;;;;;;;8.43;7.10;;;;;;;17.59;89.45;101358.25;5073514;28;20070;-58
2022/09/04 03:56:50;;;;;;;8.75;7.15;;;;;;;17.61;89.53;101367.00;5073575;28;20040;-61
2022/09/04 03:59:56;;;;;;;9.90;7.10;;;;;;;17.54;89.56;101362.81;5073545;28;20040;-60
2022/09/04 04:02:36;;;;;;;7.93;7.13;;;;;;;17.51;90.36;101370.84;5073230;28;20064;-58
2022/09/04 04:05:39;;;;;;;9.43;7.47;;;;;;;17.49;89.76;101356.81;5073278;28;20094;-61
2022/09/04 04:08:26;;;;;;;8.50;7.50;;;;;;;17.32;91.34;101351.22;5073057;28;20040;-61
2022/09/04 04:11:17;;;;;;;8.45;7.07;;;;;;;17.37;90.79;101367.81;5073145;28;20039;-58
2022/09/04 04:13:52;;;;;;;10.07;7.78;;;;;;;17.32;91.22;101377.69;5073118;28;20363;-58
2022/09/04 04:16:30;;;;;;;9.77;7.72;;;;;;;17.34;91.38;101378.50;5072790;28;20054;-59
2022/09/04 04:19:21;;;;;;;9.27;7.80;;;;;;;17.23;91.99;101372.69;5072890;28;20131;-58
2022/09/04 04:22:00;;;;;;;8.93;7.82;;;;;;;17.32;91.89;101380.31;5072859;28;20406;-59
2022/09/04 04:24:47;;;;;;;8.50;7.45;;;;;;;17.32;91.65;101388.25;5072590;28;20749;-60
2022/09/04 04:27:34;;;;;;;9.75;7.65;;;;;;;17.34;92.50;101387.28;5072769;28;20098;-59
2022/09/04 04:30:13;;;;;;;11.15;8.13;;;;;;;17.31;92.83;101391.84;5072798;28;20036;-58
2022/09/04 04:33:02;;;;;;;9.65;7.75;;;;;;;17.26;92.78;101399.06;5072780;28;20106;-60
2022/09/04 04:35:56;;;;;;;9.63;8.18;;;;;;;17.29;92.61;101396.31;5072598;28;20150;-61
2022/09/04 04:38:21;;;;;;;9.00;8.10;;;;;;;17.31;92.76;101389.19;5072792;28;20043;-58
2022/09/04 04:40:54;;;;;;;10.30;8.50;;;;;;;17.29;92.96;101398.97;5072396;28;20024;-61
2022/09/04 04:43:44;;;;;;;9.65;8.65;;;;;;;17.21;93.02;101400.97;5072545;28;20044;-60
2022/09/04 04:46:38;;;;;;;9.68;8.38;;;;;;;17.19;93.25;101392.22;5072529;28;20025;-59
2022/09/04 04:49:32;;;;;;;10.68;8.55;;;;;;;17.23;93.21;101396.50;5072130;28;20037;-60
2022/09/04 04:52:34;;;;;;;10.27;8.65;;;;;;;17.21;92.76;101398.34;5072344;28;20093;-59
2022/09/04 04:55:09;;;;;;;9.43;8.38;;;;;;;17.17;93.71;101401.97;5072349;28;20025;-59
2022/09/04 04:58:10;;;;;;;11.82;8.50;;;;;;;17.13;93.41;101405.66;5072291;28;20042;-60
2022/09/04 05:01:11;;;;;;;10.98;8.93;;;;;;;17.12;93.39;101406.56;5063367;28;20044;-60
2022/09/04 05:03:44;;;;;;;13.63;9.35;;;;;;;17.10;94.82;101411.03;5071377;28;20082;-59
2022/09/04 05:06:36;;;;;;;12.32;9.30;;;;;;;17.18;93.43;101416.94;5072239;28;20085;-61
2022/09/04 05:09:17;;;;;;;12.73;9.52;;;;;;;17.06;95.22;101418.19;5071967;28;20035;-60
2022/09/04 05:11:54;;;;;;;12.68;9.57;;;;;;;17.07;95.39;101424.34;5072088;28;20064;-59
2022/09/04 05:14:46;;;;;;;12.40;8.82;;;;;;;17.11;94.50;101428.63;5072075;28;20115;-58
2022/09/04 05:17:42;;;;;;;9.88;8.88;;;;;;;17.14;94.36;101436.47;5071959;28;20028;-58
2022/09/04 05:20:36;;;;;;;12.70;9.20;;;;;;;17.17;93.75;101436.38;5071902;28;20043;-60
2022/09/04 05:23:17;;;;;;;13.07;9.63;;;;;;;17.19;94.42;101438.06;5071904;28;20047;-60
2022/09/04 05:25:52;;;;;;;10.20;8.83;;;;;;;17.20;94.22;101441.56;5071896;28;20029;-60
2022/09/04 05:28:59;;;;;;;15.00;9.35;;;;;;;17.18;94.65;101448.69;5071881;28;20051;-58
2022/09/04 05:31:44;;;;;;;11.23;9.77;;;;;;;17.10;95.75;101451.56;5071672;28;20070;-60
2022/09/04 05:34:28;;;;;;;12.20;9.50;;;;;;;17.17;95.68;101458.38;5071694;28;20025;-59
2022/09/04 05:37:19;;;;;;;10.95;9.15;;;;;;;17.21;94.53;101452.09;5071924;28;20447;-58
2022/09/04 05:39:47;;;;;;;12.25;9.60;;;;;;;17.28;94.88;101455.44;5071751;28;20109;-63
2022/09/04 05:42:31;;;;;;;10.90;9.80;;;;;;;17.31;95.62;101463.28;5071189;28;20052;-60
2022/09/04 05:45:22;;;;;;;13.23;9.95;;;;;;;17.34;94.66;101468.44;5071610;28;20108;-59
2022/09/04 05:47:59;;;;;;;11.52;9.70;;;;;;;17.40;94.85;101476.19;5071743;28;20039;-58
2022/09/04 05:50:33;;;;;;;11.05;9.40;;;;;;;17.47;94.32;101475.09;5071573;28;20082;-59
2022/09/04 05:53:09;;;;;;;12.98;10.13;;;;;;;17.51;95.02;101479.34;5071333;28;20500;-60
2022/09/04 05:56:12;;;;;;;11.95;10.15;;;;;;;17.62;94.25;101482.56;5071302;28;20197;-60
2022/09/04 05:59:14;;;;;;;13.23;10.38;;;;;;;17.78;93.26;101490.03;5070887;28;20028;-61
2022/09/04 06:02:21;;;;;;;13.15;10.50;;;;;;;17.64;93.08;101480.75;5071577;28;20042;-62
2022/09/04 06:05:02;;;;;;;12.95;10.00;;;;;;;17.71;93.97;101498.16;5071324;28;20033;-59
2022/09/04 06:07:54;;;;;;;12.93;10.52;;;;;;;17.65;94.04;101495.72;5071478;28;20024;-60
2022/09/04 06:10:30;;;;;;;12.77;11.27;;;;;;;17.63;94.51;101500.16;5071474;28;20181;-58
2022/09/04 06:13:05;;;;;;;13.63;11.13;;;;;;;17.66;94.98;101494.78;5071131;28;20458;-59
2022/09/04 06:15:45;;;;;;;13.32;10.63;;;;;;;17.70;94.55;101500.84;5074433;28;20064;-59
2022/09/04 06:18:29;;;;;;;15.75;9.88;;;;;;;17.83;93.64;101498.69;5075200;28;20032;-60
2022/09/04 06:21:03;;;;;;;13.38;11.30;;;;;;;17.84;94.41;101500.38;5075270;28;20028;-60
2022/09/04 06:23:58;;;;;;;11.88;10.68;;;;;;;17.95;93.85;101501.78;5075504;28;20058;-59
2022/09/04 06:26:55;;;;;;;14.20;10.95;;;;;;;17.98;93.48;101503.47;5064024;28;20052;-62
2022/09/04 06:30:02;;;;;;;12.05;10.75;;;;;;;17.97;92.92;101507.03;5075149;28;20112;-58
2022/09/04 06:32:46;;;;;;;12.43;10.30;;;;;;;17.95;93.22;101491.19;5066145;28;20055;-57
2022/09/04 06:35:26;;;;;;;12.73;10.60;;;;;;;18.08;93.07;101512.81;5074866;28;20040;-59
2022/09/04 06:38:13;;;;;;;12.02;10.25;;;;;;;18.13;93.21;101499.44;5074402;28;20516;-57
2022/09/04 06:41:16;;;;;;;12.63;10.75;;;;;;;18.21;93.25;101514.13;5074261;28;20351;-58
2022/09/04 06:44:06;;;;;;;12.23;10.57;;;;;;;18.30;92.20;101510.31;5074741;28;20047;-61
2022/09/04 06:46:43;;;;;;;14.52;11.02;;;;;;;18.30;92.41;101507.66;5074168;28;20414;-61
2022/09/04 06:49:34;;;;;;;14.52;11.18;;;;;;;18.41;91.82;101511.66;5067627;28;20479;-58
2022/09/04 06:52:09;;;;;;;14.88;11.32;;;;;;;18.51;91.79;101514.00;5054652;28;20033;-60
2022/09/04 06:54:58;;;;;;;13.52;11.20;;;;;;;18.55;91.90;101511.16;5054718;28;20033;-60
2022/09/04 06:57:38;;;;;;;13.18;11.05;;;;;;;18.52;91.86;101498.06;5054041;28;20587;-58
2022/09/04 07:00:09;;;;;;;14.30;12.02;;;;;;;18.68;91.71;101509.00;5054478;28;20044;-60
2022/09/04 07:02:59;;;;;;;13.43;11.37;;;;;;;18.72;91.33;101524.72;5054406;28;20033;-60
2022/09/04 07:05:55;;;;;;;13.85;11.90;;;;;;;18.75;91.35;101510.47;5054308;28;20089;-57
2022/09/04 07:08:26;;;;;;;13.98;12.25;;;;;;;18.84;91.06;101509.28;5054263;28;20032;-58
2022/09/04 07:11:09;;;;;;;13.07;11.50;;;;;;;18.92;91.10;101508.06;5054372;28;20033;-62
2022/09/04 07:13:44;;;;;;;13.63;10.90;;;;;;;19.06;90.30;101518.16;5054422;28;20036;-61
2022/09/04 07:16:34;;;;;;;13.40;10.90;;;;;;;19.11;89.24;101519.72;5053892;28;20345;-62
2022/09/04 07:19:34;;;;;;;14.10;11.68;;;;;;;19.17;90.01;101523.94;5054063;28;20065;-61
2022/09/04 07:22:26;;;;;;;16.15;12.85;;;;;;;19.24;89.15;101529.84;5031166;28;20060;-61
2022/09/04 07:24:55;;;;;;;17.90;12.10;;;;;;;19.26;88.99;101534.19;5053945;28;20033;-62
2022/09/04 07:27:49;;;;;;;15.32;11.95;;;;;;;19.32;89.06;101525.13;5053133;28;20373;-63
2022/09/04 07:30:17;;;;;;;15.75;11.55;;;;;;;19.37;88.31;101528.50;5054110;28;20148;-61
2022/09/04 07:32:57;;;;;;;16.65;12.30;;;;;;;19.43;88.53;101534.41;5053734;28;20043;-60
2022/09/04 07:35:40;;;;;;;15.38;12.02;;;;;;;19.55;88.01;101543.72;5056606;28;20075;-62
2022/09/04 07:38:25;;;;;;;15.27;12.77;;;;;;;19.57;87.60;101546.31;5073961;28;20040;-61
2022/09/04 07:41:01;;;;;;;14.40;12.68;;;;;;;19.67;87.54;101556.50;5073680;28;20140;-60
2022/09/04 07:43:46;;;;;;;14.65;12.73;;;;;;;19.78;86.84;101554.28;5073573;28;20396;-60
2022/09/04 07:46:50;;;;;;;18.00;14.02;;;;;;;19.80;86.22;101557.75;5073531;28;20032;-61
2022/09/04 07:49:37;;;;;;;16.80;13.02;;;;;;;19.83;86.19;101551.44;5042162;28;20144;-61
2022/09/04 07:52:41;;;;;;;16.33;13.65;;;;;;;19.90;86.16;101557.38;5053472;28;20091;-63
2022/09/04 07:55:34;;;;;;;15.25;13.43;;;;;;;19.97;86.29;101561.50;5053618;28;20361;-60
2022/09/04 07:58:19;;;;;;;18.95;13.90;;;;;;;20.09;85.93;101564.50;5053286;28;20025;-61
2022/09/04 08:01:05;;;;;;;16.92;13.98;;;;;;;20.27;85.49;101554.91;5053432;28;20076;-61
2022/09/04 08:03:49;;;;;;;18.55;13.70;;;;;;;20.30;84.70;101548.59;5053015;28;20044;-62
2022/09/04 08:06:44;;;;;;;17.35;13.35;;;;;;;20.40;84.85;101557.97;5053113;28;20033;-60
2022/09/04 08:09:24;;;;;;;20.08;13.27;;;;;;;20.43;84.28;101564.00;5069070;28;20112;-59
2022/09/04 08:12:14;;;;;;;14.98;12.95;;;;;;;20.52;84.74;101567.19;5073315;28;20048;-60
2022/09/04 08:15:10;;;;;;;16.58;14.13;;;;;;;20.59;84.22;101571.34;5073159;28;20381;-60
2022/09/04 08:17:58;;;;;;;14.95;12.77;;;;;;;20.72;83.69;101568.06;5073112;28;20138;-60
2022/09/04 08:20:48;;;;;;;17.98;12.80;;;;;;;20.83;83.09;101573.75;5073076;28;20036;-61
2022/09/04 08:23:41;;;;;;;20.17;13.55;;;;;;;20.93;82.90;101573.38;5072216;28;20064;-61
2022/09/04 08:26:28;;;;;;;16.60;12.85;;;;;;;21.03;82.77;101577.34;5072936;28;20029;-59
2022/09/04 08:29:16;;;;;;;17.83;12.15;;;;;;;21.13;81.84;101575.97;5067128;28;20063;-60
2022/09/04 08:32:18;;;;;;;17.15;13.20;;;;;;;21.24;81.47;101580.84;5057920;28;20116;-60
2022/09/04 08:34:58;;;;;;;16.63;12.93;;;;;;;21.30;80.85;101572.59;5052872;28;20043;-58
2022/09/04 08:37:26;;;;;;;17.40;12.73;;;;;;;21.38;80.54;101581.06;5052359;28;20499;-61
2022/09/04 08:40:14;;;;;;;14.60;11.73;;;;;;;21.47;80.13;101580.66;5052423;28;20120;-58
2022/09/04 08:43:04;;;;;;;15.07;11.50;;;;;;;21.68;79.74;101584.94;5051081;28;20056;-62
2022/09/04 08:45:35;;;;;;;14.60;11.50;;;;;;;22.04;77.80;101593.00;5050977;28;20355;-59
2022/09/04 08:48:21;;;;;;;15.48;11.52;;;;;;;22.36;76.85;101593.19;5067530;28;20036;-61
2022/09/04 08:51:05;;;;;;;12.40;10.02;;;;;;;22.61;75.77;101593.69;5070870;28;20033;-61
2022/09/04 08:53:49;;;;;;;12.38;9.40;;;;;;;22.71;74.89;101594.03;5070228;28;20024;-60
2022/09/04 08:56:25;;;;;;;10.23;9.07;;;;;;;23.10;73.24;101597.31;5070670;28;20056;-59
2022/09/04 08:59:14;;;;;;;10.32;8.13;;;;;;;23.31;71.69;101595.31;5070948;28;20083;-60
2022/09/04 09:02:02;;;;;;;12.05;8.38;;;;;;;23.47;70.79;101592.66;5064555;28;20414;-59
2022/09/04 09:05:08;;;;;;;11.45;8.82;;;;;;;23.42;70.67;101592.91;5071609;28;20111;-60
2022/09/04 09:08:12;;;;;;;10.23;7.82;;;;;;;23.40;70.07;101599.25;5072236;28;20035;-64
2022/09/04 09:11:02;;;;;;;12.73;8.65;;;;;;;23.45;70.39;101592.72;5071668;28;20090;-62
2022/09/04 09:13:52;;;;;;;10.00;7.75;;;;;;;23.40;70.28;101593.94;5062253;28;20064;-59
2022/09/04 09:16:23;;;;;;;9.30;6.63;;;;;;;23.58;68.61;101592.94;5058279;28;20119;-60
2022/09/04 09:19:24;;;;;;;9.23;5.45;;;;;;;23.68;69.16;101588.81;5060446;28;20166;-58
2022/09/04 09:22:11;;;;;;;7.38;5.65;;;;;;;23.78;68.50;101586.47;5051782;28;20110;-59
2022/09/04 09:25:06;;;;;;;7.65;5.85;;;;;;;23.93;67.56;101585.59;5060616;28;20064;-58
2022/09/04 09:27:47;;;;;;;7.43;6.13;;;;;;;23.95;65.49;101581.91;5062361;28;20029;-62
2022/09/04 09:30:18;;;;;;;10.77;6.10;;;;;;;24.14;65.44;101579.03;5062370;28;20047;-60
2022/09/04 09:32:50;;;;;;;6.13;5.20;;;;;;;24.32;64.25;101587.81;5061272;28;20112;-58
2022/09/04 09:35:24;;;;;;;;;;;;;;;24.40;65.59;101588.22;5059139;28;20108;-59
2022/09/04 09:37:55;;;;;;;6.78;5.20;;;;;;;24.57;64.03;101585.41;5058510;28;19916;-60
2022/09/04 09:40:52;;;;;;;7.13;5.15;;;;;;;24.71;62.71;101587.25;5060201;28;20072;-60
2022/09/04 09:43:46;;;;;;;4.53;4.13;;;;;;;24.80;62.05;101585.81;5058925;28;20464;-59
2022/09/04 09:46:33;;;;;;;5.38;3.90;;;;;;;25.00;60.32;101590.84;5060417;28;20446;-59
2022/09/04 09:49:22;;;;;;;6.05;3.97;;;;;;;25.02;59.75;101591.63;5052247;28;20103;-60
2022/09/04 09:52:13;;;;;;;5.25;3.60;;;;;;;25.15;60.03;101591.72;5049884;28;20068;-61
2022/09/04 09:54:44;;;;;;;5.40;4.65;;;;;;;25.10;59.64;101586.66;5026258;28;20045;-60
2022/09/04 09:57:40;;;;;;;4.82;4.32;;;;;;;25.16;60.11;101590.75;5050045;28;20116;-61
2022/09/04 10:00:11;;;;;;;6.00;4.13;;;;;;;25.27;59.50;101588.28;5050852;28;20036;-62
2022/09/04 10:02:55;;;;;;;;;;;;;;;25.32;60.78;101594.19;5058080;28;20091;-60
2022/09/04 10:05:20;;;;;;;8.25;4.40;;;;;;;25.23;58.90;101592.09;5049925;28;19913;-60
2022/09/04 10:08:13;;;;;;;6.87;4.10;;;;;;;25.36;59.21;101593.03;5049936;28;20043;-57
2022/09/04 10:11:08;;;;;;;6.22;3.42;;;;;;;25.62;58.25;101586.06;5050675;28;20275;-60
2022/09/04 10:13:57;;;;;;;4.30;3.60;;;;;;;25.48;58.18;101586.91;5051245;28;20040;-59
2022/09/04 10:16:46;;;;;;;5.25;3.30;;;;;;;25.62;57.82;101589.59;5051118;28;20028;-58
2022/09/04 10:20:02;;;;;;;4.75;3.45;;;;;;;25.58;57.52;101589.84;5051408;28;20482;-59
2022/09/04 10:23:05;;;;;;;4.63;3.03;;;;;;;25.91;56.07;101595.75;5033152;28;20179;-60
2022/09/04 10:25:55;;;;;;;3.72;2.53;;;;;;;26.01;53.77;101598.66;5051268;28;20086;-59
2022/09/04 10:29:09;;;;;;;2.67;2.00;;;;;;;25.82;52.79;101598.16;5051138;28;20116;-60
2022/09/04 10:31:52;;;;;;;2.38;2.17;;;;;;;25.73;53.04;101594.25;5053282;28;20571;-59
2022/09/04 10:34:56;;;;;;;2.75;2.00;;;;;;;25.95;52.14;101589.22;5050667;28;20600;-58
2022/09/04 10:37:43;;;;;;;3.33;1.98;;;;;;;26.14;50.62;101601.41;5038525;28;20049;-59
2022/09/04 10:40:43;;;;;;;2.75;2.28;;;;;;;26.16;50.58;101603.00;5051004;28;20033;-57
2022/09/04 10:43:41;;;;;;;2.72;2.40;;;;;;;26.15;49.55;101592.41;5050892;28;20090;-58
2022/09/04 10:46:14;;;;;;;2.83;2.15;;;;;;;26.44;49.11;101602.06;4996261;28;20057;-59
2022/09/04 10:48:52;;;;;;;2.38;2.17;;;;;;;26.57;48.95;101599.41;5050779;28;20106;-58
2022/09/04 10:51:33;;;;;;;2.65;2.28;;;;;;;26.67;48.27;101600.47;5056959;28;20102;-58
2022/09/04 10:54:20;;;;;;;3.17;2.05;;;;;;;26.75;47.96;101599.97;5051016;28;20044;-59
2022/09/04 10:56:51;;;;;;;3.25;2.20;;;;;;;26.62;47.25;101594.59;5050987;28;20033;-61
2022/09/04 10:59:42;;;;;;;3.53;2.38;;;;;;;26.43;47.91;101583.38;5050512;28;20440;-62
2022/09/04 11:02:35;;;;;;;3.45;2.30;;;;;;;26.41;48.55;101598.72;5053272;28;20029;-62
2022/09/04 11:05:21;;;;;;;3.15;2.30;;;;;;;26.54;49.15;101591.56;5054292;28;20040;-60
2022/09/04 11:08:12;;;;;;;2.88;2.50;;;;;;;26.62;48.03;101591.91;5054315;28;20111;-62
2022/09/04 11:10:43;;;;;;;4.18;2.50;;;;;;;26.94;47.44;101593.25;5054377;28;20037;-59
2022/09/04 11:13:27;;;;;;;3.17;2.53;;;;;;;27.13;47.07;101583.88;5054070;28;20094;-59
2022/09/04 11:16:08;;;;;;;3.97;2.45;;;;;;;27.12;45.73;101583.03;5054317;28;20478;-62
2022/09/04 11:19:09;;;;;;;3.95;2.20;;;;;;;27.06;46.39;101596.88;5054111;28;20079;-62
2022/09/04 11:22:02;;;;;;;2.50;2.30;;;;;;;26.83;45.88;101597.63;5054243;28;20115;-58
2022/09/04 11:24:36;;;;;;;2.28;2.00;;;;;;;26.85;44.95;101599.22;5053985;28;20107;-62
2022/09/04 11:27:48;;;;;;;2.35;2.15;;;;;;;26.83;45.75;101581.50;5054018;28;20048;-60
2022/09/04 11:30:25;;;;;;;3.40;2.40;;;;;;;27.09;43.15;101593.97;5053813;28;20090;-51
2022/09/04 11:33:12;;;;;;;4.05;2.10;;;;;;;27.16;42.59;101589.03;5054124;28;20277;-63
2022/09/04 11:35:56;;;;;;;5.25;2.22;;;;;;;27.24;42.41;101592.88;5053717;28;20079;-59
2022/09/04 11:38:43;;;;;;;3.15;2.45;;;;;;;27.26;42.30;101584.72;5053675;28;20095;-59
2022/09/04 11:41:46;;;;;;;5.75;2.63;;;;;;;27.34;42.58;101593.97;5064804;28;20053;-59
2022/09/04 11:44:45;;;;;;;4.20;2.35;;;;;;;27.60;41.07;101588.53;5073392;28;20542;-60
2022/09/04 11:47:30;;;;;;;4.10;2.40;;;;;;;27.88;40.68;101590.91;5073727;28;20036;-60
2022/09/04 11:50:26;;;;;;;3.90;2.10;;;;;;;27.97;38.86;101592.94;5073129;28;20040;-61
2022/09/04 11:53:12;;;;;;;3.25;2.03;;;;;;;28.07;38.64;101593.09;5073662;28;20029;-60
2022/09/04 11:56:02;;;;;;;4.78;2.40;;;;;;;28.15;38.39;101590.69;5073448;28;20056;-60
2022/09/04 11:58:48;;;;;;;2.33;2.08;;;;;;;28.22;37.83;101585.75;5073521;28;20036;-59
2022/09/04 12:01:25;;;;;;;4.43;2.20;;;;;;;28.17;38.61;101582.50;5057047;28;20041;-59
2022/09/04 12:04:21;;;;;;;3.08;2.22;;;;;;;28.18;39.32;101592.31;5053071;28;20107;-60
2022/09/04 12:07:00;;;;;;;3.70;2.38;;;;;;;28.16;39.30;101594.25;5053272;28;20045;-60
2022/09/04 12:09:45;;;;;;;4.32;2.30;;;;;;;28.02;39.34;101593.47;5053212;28;20395;-60
2022/09/04 12:12:38;;;;;;;3.30;2.00;;;;;;;27.96;39.60;101588.53;5052774;28;20402;-60
2022/09/04 12:15:23;;;;;;;5.90;2.38;;;;;;;27.99;38.60;101588.31;5052877;28;20044;-62
2022/09/04 12:17:54;;;;;;;2.92;2.20;;;;;;;27.78;39.38;101597.97;5021546;28;20102;-60
2022/09/04 12:20:50;;;;;;;4.65;2.10;;;;;;;27.61;39.65;101595.66;5052995;28;20144;-59
2022/09/04 12:23:28;;;;;;;4.97;2.17;;;;;;;27.56;39.45;101600.47;5052584;28;20036;-60
2022/09/04 12:26:24;;;;;;;2.97;1.98;;;;;;;27.67;39.56;101597.91;5052749;28;20055;-60
2022/09/04 12:29:21;;;;;;;3.40;2.13;;;;;;;27.81;39.84;101596.88;5052586;28;20033;-59
2022/09/04 12:32:34;;;;;;;2.40;2.10;;;;;;;28.01;40.10;101597.13;5053058;28;20036;-59
2022/09/04 12:35:07;;;;;;;3.38;2.20;;;;;;;28.17;38.72;101598.66;5069854;28;20044;-62
2022/09/04 12:37:42;;;;;;;6.72;2.22;;;;;;;28.13;38.09;101597.16;5072079;28;20531;-61
2022/09/04 12:40:28;;;;;;;4.93;2.20;;;;;;;27.99;39.55;101601.75;5072607;28;20056;-60
2022/09/04 12:43:15;;;;;;;2.33;1.90;;;;;;;27.86;38.37;101600.97;5072001;28;20060;-60
2022/09/04 12:45:52;;;;;;;2.88;1.85;;;;;;;27.65;38.61;101594.47;5072455;28;20036;-60